sensor_id;sensor_type;location;lat;lon;timestamp;P1;durP1;ratioP1;P2;durP2;ratioP2
75984;SDS011;65033;44.660;37.758;2023-02-28T00:00:30;7.28;;;6.25;;
75984;SDS011;65033;44.660;37.758;2023-02-28T00:01:33;6.80;;;5.47;;
75984;SDS011;65033;44.660;37.758;2023-02-28T00:02:39;7.28;;;5.43;;
75984;SDS011;65033;44.660;37.758;2023-02-28T00:03:43;6.03;;;5.43;;
75984;SDS011;65033;44.660;37.758;2023-02-28T00:04:46;7.30;;;5.53;;
75984;SDS011;65033;44.660;37.758;2023-02-28T00:05:55;7.75;;;5.30;;
75984;SDS011;65033;44.660;37.758;2023-02-28T00:06:58;6.07;;;5.45;;
75984;SDS011;65033;44.660;37.758;2023-02-28T00:08:03;6.05;;;5.03;;
75984;SDS011;65033;44.660;37.758;2023-02-28T00:09:06;6.93;;;5.93;;
75984;SDS011;65033;44.660;37.758;2023-02-28T00:10:10;6.15;;;5.22;;
75984;SDS011;65033;44.660;37.758;2023-02-28T00:11:14;5.43;;;4.82;;
75984;SDS011;65033;44.660;37.758;2023-02-28T00:12:18;6.45;;;5.75;;
75984;SDS011;65033;44.660;37.758;2023-02-28T00:13:21;5.60;;;5.00;;
75984;SDS011;65033;44.660;37.758;2023-02-28T00:14:25;6.60;;;5.93;;
75984;SDS011;65033;44.660;37.758;2023-02-28T00:15:28;5.82;;;5.22;;
75984;SDS011;65033;44.660;37.758;2023-02-28T00:16:33;6.05;;;5.45;;
75984;SDS011;65033;44.660;37.758;2023-02-28T00:17:37;6.90;;;5.95;;
75984;SDS011;65033;44.660;37.758;2023-02-28T00:18:40;6.03;;;5.25;;
75984;SDS011;65033;44.660;37.758;2023-02-28T00:19:44;6.15;;;5.47;;
75984;SDS011;65033;44.660;37.758;2023-02-28T00:20:47;6.50;;;5.35;;
75984;SDS011;65033;44.660;37.758;2023-02-28T00:21:50;8.30;;;5.97;;
75984;SDS011;65033;44.660;37.758;2023-02-28T00:22:54;5.97;;;5.38;;
75984;SDS011;65033;44.660;37.758;2023-02-28T00:23:59;8.13;;;5.72;;
75984;SDS011;65033;44.660;37.758;2023-02-28T00:25:02;6.45;;;5.82;;
75984;SDS011;65033;44.660;37.758;2023-02-28T00:26:06;7.00;;;5.43;;
75984;SDS011;65033;44.660;37.758;2023-02-28T00:27:11;6.43;;;5.70;;
75984;SDS011;65033;44.660;37.758;2023-02-28T00:28:14;7.25;;;5.95;;
75984;SDS011;65033;44.660;37.758;2023-02-28T00:29:18;6.28;;;5.43;;
75984;SDS011;65033;44.660;37.758;2023-02-28T00:30:21;6.13;;;5.25;;
75984;SDS011;65033;44.660;37.758;2023-02-28T00:31:25;6.78;;;5.85;;
75984;SDS011;65033;44.660;37.758;2023-02-28T00:32:29;7.22;;;5.50;;
75984;SDS011;65033;44.660;37.758;2023-02-28T00:33:32;6.10;;;5.25;;
75984;SDS011;65033;44.660;37.758;2023-02-28T00:34:35;6.50;;;5.80;;
75984;SDS011;65033;44.660;37.758;2023-02-28T00:35:39;6.72;;;5.32;;
75984;SDS011;65033;44.660;37.758;2023-02-28T00:36:44;6.35;;;4.97;;
75984;SDS011;65033;44.660;37.758;2023-02-28T00:37:52;8.98;;;5.38;;
75984;SDS011;65033;44.660;37.758;2023-02-28T00:38:55;8.45;;;6.00;;
75984;SDS011;65033;44.660;37.758;2023-02-28T00:40:00;7.13;;;6.22;;
75984;SDS011;65033;44.660;37.758;2023-02-28T00:41:04;6.80;;;5.75;;
75984;SDS011;65033;44.660;37.758;2023-02-28T00:42:08;6.72;;;5.38;;
75984;SDS011;65033;44.660;37.758;2023-02-28T00:43:11;6.30;;;5.60;;
75984;SDS011;65033;44.660;37.758;2023-02-28T00:44:14;6.03;;;5.40;;
75984;SDS011;65033;44.660;37.758;2023-02-28T00:45:17;6.95;;;5.70;;
75984;SDS011;65033;44.660;37.758;2023-02-28T00:46:21;7.15;;;5.55;;
75984;SDS011;65033;44.660;37.758;2023-02-28T00:47:25;5.97;;;5.15;;
75984;SDS011;65033;44.660;37.758;2023-02-28T00:48:29;5.68;;;5.00;;
75984;SDS011;65033;44.660;37.758;2023-02-28T00:49:33;5.63;;;5.03;;
75984;SDS011;65033;44.660;37.758;2023-02-28T00:50:36;6.22;;;5.63;;
75984;SDS011;65033;44.660;37.758;2023-02-28T00:51:40;6.60;;;5.18;;
75984;SDS011;65033;44.660;37.758;2023-02-28T00:52:44;6.07;;;5.03;;
75984;SDS011;65033;44.660;37.758;2023-02-28T00:53:48;7.10;;;5.80;;
75984;SDS011;65033;44.660;37.758;2023-02-28T00:54:52;6.45;;;5.57;;
75984;SDS011;65033;44.660;37.758;2023-02-28T00:55:57;5.95;;;5.32;;
75984;SDS011;65033;44.660;37.758;2023-02-28T00:57:00;6.97;;;5.25;;
75984;SDS011;65033;44.660;37.758;2023-02-28T00:58:06;6.10;;;5.45;;
75984;SDS011;65033;44.660;37.758;2023-02-28T00:59:09;5.88;;;5.28;;
75984;SDS011;65033;44.660;37.758;2023-02-28T01:00:13;6.22;;;5.60;;
75984;SDS011;65033;44.660;37.758;2023-02-28T01:01:17;7.10;;;5.90;;
75984;SDS011;65033;44.660;37.758;2023-02-28T01:02:21;6.93;;;5.47;;
75984;SDS011;65033;44.660;37.758;2023-02-28T01:03:27;6.05;;;5.15;;
75984;SDS011;65033;44.660;37.758;2023-02-28T01:04:31;6.78;;;5.50;;
75984;SDS011;65033;44.660;37.758;2023-02-28T01:05:35;7.05;;;5.97;;
75984;SDS011;65033;44.660;37.758;2023-02-28T01:06:42;7.15;;;5.72;;
75984;SDS011;65033;44.660;37.758;2023-02-28T01:07:45;5.75;;;5.25;;
75984;SDS011;65033;44.660;37.758;2023-02-28T01:08:48;6.72;;;5.35;;
75984;SDS011;65033;44.660;37.758;2023-02-28T01:09:52;7.35;;;5.72;;
75984;SDS011;65033;44.660;37.758;2023-02-28T01:10:56;6.28;;;5.50;;
75984;SDS011;65033;44.660;37.758;2023-02-28T01:12:00;5.97;;;5.32;;
75984;SDS011;65033;44.660;37.758;2023-02-28T01:13:03;5.95;;;4.95;;
75984;SDS011;65033;44.660;37.758;2023-02-28T01:14:06;5.75;;;4.97;;
75984;SDS011;65033;44.660;37.758;2023-02-28T01:15:11;7.20;;;5.50;;
75984;SDS011;65033;44.660;37.758;2023-02-28T01:16:15;6.70;;;5.45;;
75984;SDS011;65033;44.660;37.758;2023-02-28T01:17:20;5.55;;;4.70;;
75984;SDS011;65033;44.660;37.758;2023-02-28T01:18:23;7.40;;;5.97;;
75984;SDS011;65033;44.660;37.758;2023-02-28T01:19:27;6.75;;;5.18;;
75984;SDS011;65033;44.660;37.758;2023-02-28T01:20:30;6.22;;;5.30;;
75984;SDS011;65033;44.660;37.758;2023-02-28T01:21:33;5.97;;;5.05;;
75984;SDS011;65033;44.660;37.758;2023-02-28T01:22:38;7.78;;;5.85;;
75984;SDS011;65033;44.660;37.758;2023-02-28T01:23:42;7.45;;;5.20;;
75984;SDS011;65033;44.660;37.758;2023-02-28T01:24:45;6.70;;;5.10;;
75984;SDS011;65033;44.660;37.758;2023-02-28T01:25:49;7.18;;;5.78;;
75984;SDS011;65033;44.660;37.758;2023-02-28T01:26:54;6.45;;;5.25;;
75984;SDS011;65033;44.660;37.758;2023-02-28T01:27:57;5.93;;;5.28;;
75984;SDS011;65033;44.660;37.758;2023-02-28T01:29:01;5.80;;;5.00;;
75984;SDS011;65033;44.660;37.758;2023-02-28T01:30:05;6.13;;;5.20;;
75984;SDS011;65033;44.660;37.758;2023-02-28T01:31:10;7.25;;;5.07;;
75984;SDS011;65033;44.660;37.758;2023-02-28T01:32:14;5.53;;;4.93;;
75984;SDS011;65033;44.660;37.758;2023-02-28T01:33:17;5.35;;;4.85;;
75984;SDS011;65033;44.660;37.758;2023-02-28T01:34:20;6.38;;;5.15;;
75984;SDS011;65033;44.660;37.758;2023-02-28T01:35:25;6.00;;;5.10;;
75984;SDS011;65033;44.660;37.758;2023-02-28T01:36:29;6.40;;;5.18;;
75984;SDS011;65033;44.660;37.758;2023-02-28T01:37:32;6.78;;;5.35;;
75984;SDS011;65033;44.660;37.758;2023-02-28T01:38:36;6.53;;;5.20;;
75984;SDS011;65033;44.660;37.758;2023-02-28T01:39:39;6.07;;;5.47;;
75984;SDS011;65033;44.660;37.758;2023-02-28T01:40:42;5.63;;;4.97;;
75984;SDS011;65033;44.660;37.758;2023-02-28T01:41:46;6.68;;;5.60;;
75984;SDS011;65033;44.660;37.758;2023-02-28T01:42:51;5.78;;;5.18;;
75984;SDS011;65033;44.660;37.758;2023-02-28T01:44:01;5.85;;;5.10;;
75984;SDS011;65033;44.660;37.758;2023-02-28T01:45:16;6.15;;;5.55;;
75984;SDS011;65033;44.660;37.758;2023-02-28T01:46:24;5.00;;;4.50;;
75984;SDS011;65033;44.660;37.758;2023-02-28T01:47:28;5.63;;;4.93;;
75984;SDS011;65033;44.660;37.758;2023-02-28T01:48:34;5.72;;;4.78;;
75984;SDS011;65033;44.660;37.758;2023-02-28T01:49:40;5.70;;;4.95;;
75984;SDS011;65033;44.660;37.758;2023-02-28T01:50:45;6.30;;;5.60;;
75984;SDS011;65033;44.660;37.758;2023-02-28T01:51:51;5.85;;;5.25;;
75984;SDS011;65033;44.660;37.758;2023-02-28T01:53:01;6.85;;;5.88;;
75984;SDS011;65033;44.660;37.758;2023-02-28T01:54:09;6.47;;;5.15;;
75984;SDS011;65033;44.660;37.758;2023-02-28T01:55:16;7.68;;;5.95;;
75984;SDS011;65033;44.660;37.758;2023-02-28T01:56:23;5.80;;;5.28;;
75984;SDS011;65033;44.660;37.758;2023-02-28T01:57:29;6.05;;;5.43;;
75984;SDS011;65033;44.660;37.758;2023-02-28T01:58:41;5.68;;;5.07;;
75984;SDS011;65033;44.660;37.758;2023-02-28T01:59:45;5.78;;;5.10;;
75984;SDS011;65033;44.660;37.758;2023-02-28T02:00:54;6.22;;;5.63;;
75984;SDS011;65033;44.660;37.758;2023-02-28T02:02:01;6.72;;;5.32;;
75984;SDS011;65033;44.660;37.758;2023-02-28T02:03:07;5.68;;;5.07;;
75984;SDS011;65033;44.660;37.758;2023-02-28T02:04:12;6.15;;;5.15;;
75984;SDS011;65033;44.660;37.758;2023-02-28T02:05:17;6.18;;;5.45;;
75984;SDS011;65033;44.660;37.758;2023-02-28T02:06:21;7.35;;;5.35;;
75984;SDS011;65033;44.660;37.758;2023-02-28T02:07:25;6.20;;;5.55;;
75984;SDS011;65033;44.660;37.758;2023-02-28T02:08:32;6.13;;;5.53;;
75984;SDS011;65033;44.660;37.758;2023-02-28T02:09:36;7.38;;;5.50;;
75984;SDS011;65033;44.660;37.758;2023-02-28T02:10:40;5.28;;;4.70;;
75984;SDS011;65033;44.660;37.758;2023-02-28T02:11:45;6.43;;;5.70;;
75984;SDS011;65033;44.660;37.758;2023-02-28T02:14:34;7.00;;;5.25;;
75984;SDS011;65033;44.660;37.758;2023-02-28T02:15:48;6.40;;;5.47;;
75984;SDS011;65033;44.660;37.758;2023-02-28T02:17:05;6.20;;;5.57;;
75984;SDS011;65033;44.660;37.758;2023-02-28T02:18:18;5.47;;;4.78;;
75984;SDS011;65033;44.660;37.758;2023-02-28T02:19:36;6.07;;;5.13;;
75984;SDS011;65033;44.660;37.758;2023-02-28T02:24:48;6.78;;;5.30;;
75984;SDS011;65033;44.660;37.758;2023-02-28T02:26:25;5.90;;;5.30;;
75984;SDS011;65033;44.660;37.758;2023-02-28T02:31:32;5.68;;;5.05;;
75984;SDS011;65033;44.660;37.758;2023-02-28T02:33:06;7.28;;;5.50;;
75984;SDS011;65033;44.660;37.758;2023-02-28T02:34:28;7.50;;;5.50;;
75984;SDS011;65033;44.660;37.758;2023-02-28T02:35:45;5.65;;;4.90;;
75984;SDS011;65033;44.660;37.758;2023-02-28T02:36:58;5.40;;;4.88;;
75984;SDS011;65033;44.660;37.758;2023-02-28T02:38:14;6.07;;;5.07;;
75984;SDS011;65033;44.660;37.758;2023-02-28T02:39:24;7.25;;;5.18;;
75984;SDS011;65033;44.660;37.758;2023-02-28T02:40:35;6.03;;;5.32;;
75984;SDS011;65033;44.660;37.758;2023-02-28T02:41:42;5.53;;;4.95;;
75984;SDS011;65033;44.660;37.758;2023-02-28T02:42:50;6.68;;;5.45;;
75984;SDS011;65033;44.660;37.758;2023-02-28T02:44:01;6.65;;;4.97;;
75984;SDS011;65033;44.660;37.758;2023-02-28T02:45:07;5.53;;;4.97;;
75984;SDS011;65033;44.660;37.758;2023-02-28T02:46:15;6.15;;;5.55;;
75984;SDS011;65033;44.660;37.758;2023-02-28T02:47:22;7.90;;;5.50;;
75984;SDS011;65033;44.660;37.758;2023-02-28T02:48:29;6.57;;;5.32;;
75984;SDS011;65033;44.660;37.758;2023-02-28T02:49:38;5.93;;;5.10;;
75984;SDS011;65033;44.660;37.758;2023-02-28T02:50:45;5.75;;;5.05;;
75984;SDS011;65033;44.660;37.758;2023-02-28T02:51:51;5.93;;;5.32;;
75984;SDS011;65033;44.660;37.758;2023-02-28T02:52:56;6.13;;;5.47;;
75984;SDS011;65033;44.660;37.758;2023-02-28T02:54:04;7.57;;;5.45;;
75984;SDS011;65033;44.660;37.758;2023-02-28T02:55:11;7.00;;;5.93;;
75984;SDS011;65033;44.660;37.758;2023-02-28T02:56:17;6.57;;;5.32;;
75984;SDS011;65033;44.660;37.758;2023-02-28T02:57:23;6.72;;;5.57;;
75984;SDS011;65033;44.660;37.758;2023-02-28T02:58:30;5.70;;;5.03;;
75984;SDS011;65033;44.660;37.758;2023-02-28T02:59:38;5.45;;;4.95;;
75984;SDS011;65033;44.660;37.758;2023-02-28T03:00:43;5.70;;;5.05;;
75984;SDS011;65033;44.660;37.758;2023-02-28T03:01:59;5.80;;;5.30;;
75984;SDS011;65033;44.660;37.758;2023-02-28T03:03:05;7.00;;;5.53;;
75984;SDS011;65033;44.660;37.758;2023-02-28T03:04:12;6.43;;;5.03;;
75984;SDS011;65033;44.660;37.758;2023-02-28T03:05:21;5.55;;;4.85;;
75984;SDS011;65033;44.660;37.758;2023-02-28T03:06:27;6.20;;;5.40;;
75984;SDS011;65033;44.660;37.758;2023-02-28T03:07:31;6.70;;;5.18;;
75984;SDS011;65033;44.660;37.758;2023-02-28T03:08:35;6.90;;;5.43;;
75984;SDS011;65033;44.660;37.758;2023-02-28T03:09:40;5.88;;;5.25;;
75984;SDS011;65033;44.660;37.758;2023-02-28T03:10:44;5.93;;;5.20;;
75984;SDS011;65033;44.660;37.758;2023-02-28T03:11:52;5.75;;;5.15;;
75984;SDS011;65033;44.660;37.758;2023-02-28T03:13:00;5.85;;;5.07;;
75984;SDS011;65033;44.660;37.758;2023-02-28T03:14:25;6.05;;;5.18;;
75984;SDS011;65033;44.660;37.758;2023-02-28T03:15:40;6.13;;;5.47;;
75984;SDS011;65033;44.660;37.758;2023-02-28T03:17:00;5.78;;;5.20;;
75984;SDS011;65033;44.660;37.758;2023-02-28T03:18:17;6.03;;;5.20;;
75984;SDS011;65033;44.660;37.758;2023-02-28T03:19:33;7.00;;;5.65;;
75984;SDS011;65033;44.660;37.758;2023-02-28T03:20:46;6.55;;;5.30;;
75984;SDS011;65033;44.660;37.758;2023-02-28T03:22:01;6.20;;;4.97;;
75984;SDS011;65033;44.660;37.758;2023-02-28T03:23:13;7.10;;;5.45;;
75984;SDS011;65033;44.660;37.758;2023-02-28T03:24:23;6.38;;;5.50;;
75984;SDS011;65033;44.660;37.758;2023-02-28T03:25:36;6.18;;;5.45;;
75984;SDS011;65033;44.660;37.758;2023-02-28T03:26:45;5.65;;;4.93;;
75984;SDS011;65033;44.660;37.758;2023-02-28T03:27:55;6.20;;;5.22;;
75984;SDS011;65033;44.660;37.758;2023-02-28T03:29:05;6.18;;;5.43;;
75984;SDS011;65033;44.660;37.758;2023-02-28T03:30:16;6.88;;;6.03;;
75984;SDS011;65033;44.660;37.758;2023-02-28T03:31:26;6.15;;;5.53;;
75984;SDS011;65033;44.660;37.758;2023-02-28T03:32:33;6.93;;;5.25;;
75984;SDS011;65033;44.660;37.758;2023-02-28T03:33:39;5.85;;;5.25;;
75984;SDS011;65033;44.660;37.758;2023-02-28T03:34:48;5.30;;;4.57;;
75984;SDS011;65033;44.660;37.758;2023-02-28T03:35:59;6.95;;;5.35;;
75984;SDS011;65033;44.660;37.758;2023-02-28T03:37:07;6.85;;;6.00;;
75984;SDS011;65033;44.660;37.758;2023-02-28T03:38:15;7.10;;;5.93;;
75984;SDS011;65033;44.660;37.758;2023-02-28T03:39:26;5.97;;;5.38;;
75984;SDS011;65033;44.660;37.758;2023-02-28T03:40:36;7.40;;;5.22;;
75984;SDS011;65033;44.660;37.758;2023-02-28T03:41:42;8.35;;;5.93;;
75984;SDS011;65033;44.660;37.758;2023-02-28T03:42:54;7.10;;;5.72;;
75984;SDS011;65033;44.660;37.758;2023-02-28T03:44:03;6.78;;;5.70;;
75984;SDS011;65033;44.660;37.758;2023-02-28T03:45:10;6.40;;;5.35;;
75984;SDS011;65033;44.660;37.758;2023-02-28T03:46:19;8.13;;;5.97;;
75984;SDS011;65033;44.660;37.758;2023-02-28T03:47:27;5.93;;;5.30;;
75984;SDS011;65033;44.660;37.758;2023-02-28T03:48:35;6.88;;;6.18;;
75984;SDS011;65033;44.660;37.758;2023-02-28T03:49:44;6.22;;;5.63;;
75984;SDS011;65033;44.660;37.758;2023-02-28T03:50:52;6.80;;;6.00;;
75984;SDS011;65033;44.660;37.758;2023-02-28T03:51:59;6.80;;;6.18;;
75984;SDS011;65033;44.660;37.758;2023-02-28T03:53:06;8.75;;;6.20;;
75984;SDS011;65033;44.660;37.758;2023-02-28T03:54:15;7.00;;;6.13;;
75984;SDS011;65033;44.660;37.758;2023-02-28T03:55:21;7.00;;;6.25;;
75984;SDS011;65033;44.660;37.758;2023-02-28T03:56:27;6.88;;;5.28;;
75984;SDS011;65033;44.660;37.758;2023-02-28T03:57:37;7.93;;;6.85;;
75984;SDS011;65033;44.660;37.758;2023-02-28T03:58:46;8.73;;;6.10;;
75984;SDS011;65033;44.660;37.758;2023-02-28T03:59:54;6.70;;;6.00;;
75984;SDS011;65033;44.660;37.758;2023-02-28T04:01:03;7.45;;;6.40;;
75984;SDS011;65033;44.660;37.758;2023-02-28T04:02:12;8.55;;;6.38;;
75984;SDS011;65033;44.660;37.758;2023-02-28T04:03:15;7.78;;;6.15;;
75984;SDS011;65033;44.660;37.758;2023-02-28T04:04:19;7.95;;;6.40;;
75984;SDS011;65033;44.660;37.758;2023-02-28T04:05:23;9.98;;;6.95;;
75984;SDS011;65033;44.660;37.758;2023-02-28T04:06:27;8.00;;;6.85;;
75984;SDS011;65033;44.660;37.758;2023-02-28T04:07:35;6.90;;;6.18;;
75984;SDS011;65033;44.660;37.758;2023-02-28T04:08:39;8.73;;;6.43;;
75984;SDS011;65033;44.660;37.758;2023-02-28T04:09:43;7.50;;;6.72;;
75984;SDS011;65033;44.660;37.758;2023-02-28T04:10:48;7.75;;;6.75;;
75984;SDS011;65033;44.660;37.758;2023-02-28T04:11:55;6.30;;;5.32;;
75984;SDS011;65033;44.660;37.758;2023-02-28T04:12:59;7.30;;;6.55;;
75984;SDS011;65033;44.660;37.758;2023-02-28T04:14:02;6.85;;;6.00;;
75984;SDS011;65033;44.660;37.758;2023-02-28T04:15:07;10.10;;;7.00;;
75984;SDS011;65033;44.660;37.758;2023-02-28T04:16:11;9.55;;;6.35;;
75984;SDS011;65033;44.660;37.758;2023-02-28T04:17:25;8.20;;;6.85;;
75984;SDS011;65033;44.660;37.758;2023-02-28T04:18:29;7.45;;;6.40;;
75984;SDS011;65033;44.660;37.758;2023-02-28T04:19:33;7.15;;;5.75;;
75984;SDS011;65033;44.660;37.758;2023-02-28T04:20:36;12.25;;;7.38;;
75984;SDS011;65033;44.660;37.758;2023-02-28T04:21:40;7.35;;;6.65;;
75984;SDS011;65033;44.660;37.758;2023-02-28T04:22:46;7.28;;;6.55;;
75984;SDS011;65033;44.660;37.758;2023-02-28T04:23:49;9.85;;;7.30;;
75984;SDS011;65033;44.660;37.758;2023-02-28T04:24:53;10.80;;;6.85;;
75984;SDS011;65033;44.660;37.758;2023-02-28T04:25:56;7.43;;;6.65;;
75984;SDS011;65033;44.660;37.758;2023-02-28T04:27:00;8.70;;;6.90;;
75984;SDS011;65033;44.660;37.758;2023-02-28T04:28:03;9.90;;;6.53;;
75984;SDS011;65033;44.660;37.758;2023-02-28T04:29:07;6.95;;;6.22;;
75984;SDS011;65033;44.660;37.758;2023-02-28T04:30:11;8.98;;;6.40;;
75984;SDS011;65033;44.660;37.758;2023-02-28T04:31:14;7.95;;;6.18;;
75984;SDS011;65033;44.660;37.758;2023-02-28T04:32:17;8.95;;;6.95;;
75984;SDS011;65033;44.660;37.758;2023-02-28T04:33:21;7.75;;;6.93;;
75984;SDS011;65033;44.660;37.758;2023-02-28T04:34:24;8.60;;;6.72;;
75984;SDS011;65033;44.660;37.758;2023-02-28T04:35:28;8.07;;;6.43;;
75984;SDS011;65033;44.660;37.758;2023-02-28T04:36:31;9.93;;;6.60;;
75984;SDS011;65033;44.660;37.758;2023-02-28T04:37:35;8.05;;;6.63;;
75984;SDS011;65033;44.660;37.758;2023-02-28T04:38:40;9.88;;;6.57;;
75984;SDS011;65033;44.660;37.758;2023-02-28T04:39:44;7.78;;;6.60;;
75984;SDS011;65033;44.660;37.758;2023-02-28T04:40:47;10.50;;;6.53;;
75984;SDS011;65033;44.660;37.758;2023-02-28T04:41:50;17.67;;;6.93;;
75984;SDS011;65033;44.660;37.758;2023-02-28T04:42:53;9.45;;;6.85;;
75984;SDS011;65033;44.660;37.758;2023-02-28T04:43:57;10.32;;;7.00;;
75984;SDS011;65033;44.660;37.758;2023-02-28T04:45:00;11.98;;;6.80;;
75984;SDS011;65033;44.660;37.758;2023-02-28T04:46:04;9.02;;;6.85;;
75984;SDS011;65033;44.660;37.758;2023-02-28T04:47:07;8.75;;;7.03;;
75984;SDS011;65033;44.660;37.758;2023-02-28T04:48:11;9.60;;;6.53;;
75984;SDS011;65033;44.660;37.758;2023-02-28T04:49:14;10.02;;;6.85;;
75984;SDS011;65033;44.660;37.758;2023-02-28T04:50:17;9.40;;;6.80;;
75984;SDS011;65033;44.660;37.758;2023-02-28T04:51:21;8.63;;;6.38;;
75984;SDS011;65033;44.660;37.758;2023-02-28T04:52:24;8.30;;;6.45;;
75984;SDS011;65033;44.660;37.758;2023-02-28T04:53:29;8.45;;;6.95;;
75984;SDS011;65033;44.660;37.758;2023-02-28T04:54:34;10.40;;;6.30;;
75984;SDS011;65033;44.660;37.758;2023-02-28T04:55:37;10.18;;;6.82;;
75984;SDS011;65033;44.660;37.758;2023-02-28T04:56:42;6.95;;;5.85;;
75984;SDS011;65033;44.660;37.758;2023-02-28T04:57:45;14.07;;;6.93;;
75984;SDS011;65033;44.660;37.758;2023-02-28T04:58:49;7.28;;;6.38;;
75984;SDS011;65033;44.660;37.758;2023-02-28T04:59:54;8.95;;;6.57;;
75984;SDS011;65033;44.660;37.758;2023-02-28T05:01:01;8.32;;;5.63;;
75984;SDS011;65033;44.660;37.758;2023-02-28T05:02:06;7.53;;;6.10;;
75984;SDS011;65033;44.660;37.758;2023-02-28T05:03:10;10.15;;;6.00;;
75984;SDS011;65033;44.660;37.758;2023-02-28T05:04:13;9.32;;;7.13;;
75984;SDS011;65033;44.660;37.758;2023-02-28T05:05:17;11.20;;;7.20;;
75984;SDS011;65033;44.660;37.758;2023-02-28T05:06:21;9.52;;;7.00;;
75984;SDS011;65033;44.660;37.758;2023-02-28T05:07:26;13.10;;;7.00;;
75984;SDS011;65033;44.660;37.758;2023-02-28T05:08:29;11.95;;;6.43;;
75984;SDS011;65033;44.660;37.758;2023-02-28T05:09:34;8.15;;;6.82;;
75984;SDS011;65033;44.660;37.758;2023-02-28T05:10:37;7.57;;;6.07;;
75984;SDS011;65033;44.660;37.758;2023-02-28T05:11:40;9.18;;;7.15;;
75984;SDS011;65033;44.660;37.758;2023-02-28T05:12:44;9.15;;;6.10;;
75984;SDS011;65033;44.660;37.758;2023-02-28T05:13:47;8.73;;;6.47;;
75984;SDS011;65033;44.660;37.758;2023-02-28T05:14:51;9.35;;;6.55;;
75984;SDS011;65033;44.660;37.758;2023-02-28T05:15:54;7.60;;;6.07;;
75984;SDS011;65033;44.660;37.758;2023-02-28T05:16:57;8.43;;;6.50;;
75984;SDS011;65033;44.660;37.758;2023-02-28T05:18:01;9.98;;;7.10;;
75984;SDS011;65033;44.660;37.758;2023-02-28T05:19:04;9.25;;;7.07;;
75984;SDS011;65033;44.660;37.758;2023-02-28T05:20:08;9.07;;;7.20;;
75984;SDS011;65033;44.660;37.758;2023-02-28T05:21:22;10.15;;;6.65;;
75984;SDS011;65033;44.660;37.758;2023-02-28T05:22:28;8.25;;;6.57;;
75984;SDS011;65033;44.660;37.758;2023-02-28T05:23:32;9.27;;;6.35;;
75984;SDS011;65033;44.660;37.758;2023-02-28T05:24:37;8.70;;;6.75;;
75984;SDS011;65033;44.660;37.758;2023-02-28T05:25:40;9.43;;;6.80;;
75984;SDS011;65033;44.660;37.758;2023-02-28T05:26:43;9.80;;;6.88;;
75984;SDS011;65033;44.660;37.758;2023-02-28T05:27:46;11.05;;;6.70;;
75984;SDS011;65033;44.660;37.758;2023-02-28T05:28:50;8.30;;;6.68;;
75984;SDS011;65033;44.660;37.758;2023-02-28T05:29:53;9.57;;;6.78;;
75984;SDS011;65033;44.660;37.758;2023-02-28T05:30:57;8.13;;;6.78;;
75984;SDS011;65033;44.660;37.758;2023-02-28T05:32:01;9.13;;;6.75;;
75984;SDS011;65033;44.660;37.758;2023-02-28T05:33:04;10.63;;;7.90;;
75984;SDS011;65033;44.660;37.758;2023-02-28T05:34:08;10.93;;;7.82;;
75984;SDS011;65033;44.660;37.758;2023-02-28T05:35:13;11.18;;;7.18;;
75984;SDS011;65033;44.660;37.758;2023-02-28T05:36:16;10.32;;;7.45;;
75984;SDS011;65033;44.660;37.758;2023-02-28T05:37:20;9.65;;;6.63;;
75984;SDS011;65033;44.660;37.758;2023-02-28T05:38:23;8.13;;;6.78;;
75984;SDS011;65033;44.660;37.758;2023-02-28T05:39:27;7.55;;;6.60;;
75984;SDS011;65033;44.660;37.758;2023-02-28T05:40:32;8.48;;;6.97;;
75984;SDS011;65033;44.660;37.758;2023-02-28T05:41:35;9.48;;;7.03;;
75984;SDS011;65033;44.660;37.758;2023-02-28T05:42:38;10.75;;;7.07;;
75984;SDS011;65033;44.660;37.758;2023-02-28T05:43:41;8.82;;;7.13;;
75984;SDS011;65033;44.660;37.758;2023-02-28T05:44:45;9.93;;;7.22;;
75984;SDS011;65033;44.660;37.758;2023-02-28T05:45:49;10.38;;;7.75;;
75984;SDS011;65033;44.660;37.758;2023-02-28T05:46:53;8.65;;;7.45;;
75984;SDS011;65033;44.660;37.758;2023-02-28T05:47:56;9.25;;;7.13;;
75984;SDS011;65033;44.660;37.758;2023-02-28T05:48:59;8.13;;;6.65;;
75984;SDS011;65033;44.660;37.758;2023-02-28T05:50:03;8.15;;;7.10;;
75984;SDS011;65033;44.660;37.758;2023-02-28T05:51:08;7.97;;;7.18;;
75984;SDS011;65033;44.660;37.758;2023-02-28T05:52:11;11.45;;;7.22;;
75984;SDS011;65033;44.660;37.758;2023-02-28T05:53:15;8.82;;;6.63;;
75984;SDS011;65033;44.660;37.758;2023-02-28T05:54:18;9.85;;;7.20;;
75984;SDS011;65033;44.660;37.758;2023-02-28T05:55:21;8.40;;;6.97;;
75984;SDS011;65033;44.660;37.758;2023-02-28T05:56:26;10.13;;;7.35;;
75984;SDS011;65033;44.660;37.758;2023-02-28T05:57:29;9.18;;;7.65;;
75984;SDS011;65033;44.660;37.758;2023-02-28T05:58:32;9.55;;;7.75;;
75984;SDS011;65033;44.660;37.758;2023-02-28T05:59:37;8.43;;;6.97;;
75984;SDS011;65033;44.660;37.758;2023-02-28T06:00:42;7.88;;;6.75;;
75984;SDS011;65033;44.660;37.758;2023-02-28T06:01:47;10.90;;;7.57;;
75984;SDS011;65033;44.660;37.758;2023-02-28T06:02:54;10.85;;;6.57;;
75984;SDS011;65033;44.660;37.758;2023-02-28T06:04:00;11.63;;;7.88;;
75984;SDS011;65033;44.660;37.758;2023-02-28T06:05:04;9.85;;;7.10;;
75984;SDS011;65033;44.660;37.758;2023-02-28T06:06:08;13.68;;;7.22;;
75984;SDS011;65033;44.660;37.758;2023-02-28T06:07:11;19.35;;;6.93;;
75984;SDS011;65033;44.660;37.758;2023-02-28T06:08:15;11.15;;;7.40;;
75984;SDS011;65033;44.660;37.758;2023-02-28T06:09:18;7.93;;;7.13;;
75984;SDS011;65033;44.660;37.758;2023-02-28T06:10:22;8.90;;;6.93;;
75984;SDS011;65033;44.660;37.758;2023-02-28T06:11:27;10.40;;;6.50;;
75984;SDS011;65033;44.660;37.758;2023-02-28T06:12:31;9.73;;;7.20;;
75984;SDS011;65033;44.660;37.758;2023-02-28T06:13:34;10.27;;;7.28;;
75984;SDS011;65033;44.660;37.758;2023-02-28T06:14:39;11.30;;;6.90;;
75984;SDS011;65033;44.660;37.758;2023-02-28T06:15:43;11.90;;;9.20;;
75984;SDS011;65033;44.660;37.758;2023-02-28T06:16:46;13.07;;;10.15;;
75984;SDS011;65033;44.660;37.758;2023-02-28T06:17:50;11.40;;;8.13;;
75984;SDS011;65033;44.660;37.758;2023-02-28T06:18:54;9.45;;;7.88;;
75984;SDS011;65033;44.660;37.758;2023-02-28T06:20:00;10.35;;;7.97;;
75984;SDS011;65033;44.660;37.758;2023-02-28T06:21:03;10.85;;;8.07;;
75984;SDS011;65033;44.660;37.758;2023-02-28T06:22:07;12.25;;;8.23;;
75984;SDS011;65033;44.660;37.758;2023-02-28T06:23:10;12.60;;;8.18;;
75984;SDS011;65033;44.660;37.758;2023-02-28T06:24:13;10.98;;;8.48;;
75984;SDS011;65033;44.660;37.758;2023-02-28T06:25:17;10.02;;;8.48;;
75984;SDS011;65033;44.660;37.758;2023-02-28T06:26:20;12.05;;;9.32;;
75984;SDS011;65033;44.660;37.758;2023-02-28T06:27:25;12.98;;;8.52;;
75984;SDS011;65033;44.660;37.758;2023-02-28T06:28:29;11.23;;;9.15;;
75984;SDS011;65033;44.660;37.758;2023-02-28T06:29:32;12.32;;;9.25;;
75984;SDS011;65033;44.660;37.758;2023-02-28T06:30:38;13.05;;;9.00;;
75984;SDS011;65033;44.660;37.758;2023-02-28T06:31:41;10.02;;;8.25;;
75984;SDS011;65033;44.660;37.758;2023-02-28T06:32:46;12.38;;;9.60;;
75984;SDS011;65033;44.660;37.758;2023-02-28T06:33:51;13.25;;;8.93;;
75984;SDS011;65033;44.660;37.758;2023-02-28T06:34:54;12.73;;;9.30;;
75984;SDS011;65033;44.660;37.758;2023-02-28T06:35:59;11.30;;;8.77;;
75984;SDS011;65033;44.660;37.758;2023-02-28T06:37:03;13.25;;;9.07;;
75984;SDS011;65033;44.660;37.758;2023-02-28T06:38:07;14.30;;;9.13;;
75984;SDS011;65033;44.660;37.758;2023-02-28T06:39:10;12.73;;;9.98;;